createdAt,value
2018-04-07T00:00:30.608Z,50.40
2018-04-07T00:02:58.905Z,50.60
2018-04-07T00:05:26.461Z,50.60
2018-04-07T00:07:54.810Z,50.40
2018-04-07T00:10:22.334Z,50.20
2018-04-07T00:12:50.658Z,50.00
2018-04-07T00:15:18.172Z,49.90
2018-04-07T00:17:46.458Z,50.10
2018-04-07T00:20:14.439Z,50.00
2018-04-07T00:22:41.982Z,50.50
2018-04-07T00:25:10.252Z,50.90
2018-04-07T00:27:37.801Z,50.80
2018-04-07T00:30:05.310Z,50.80
2018-04-07T00:32:32.841Z,50.40
2018-04-07T00:35:04.233Z,50.50
2018-04-07T00:37:31.826Z,50.50
2018-04-07T00:39:59.421Z,50.50
2018-04-07T00:42:26.994Z,49.70
2018-04-07T00:44:54.590Z,49.50
2018-04-07T00:47:22.102Z,50.00
2018-04-07T00:49:50.183Z,49.80
2018-04-07T00:52:17.700Z,49.60
2018-04-07T00:54:45.258Z,50.10
2018-04-07T00:57:12.761Z,50.00
2018-04-07T00:59:40.269Z,50.00
2018-04-07T01:02:08.572Z,49.80
2018-04-07T01:04:36.845Z,49.80
2018-04-07T01:07:05.148Z,50.00
2018-04-07T01:09:32.679Z,50.00
2018-04-07T01:12:01.033Z,50.80
2018-04-07T01:14:28.742Z,50.80
2018-04-07T01:17:00.695Z,51.10
2018-04-07T01:19:32.844Z,51.60
2018-04-07T01:22:05.165Z,51.80
2018-04-07T01:24:32.668Z,51.70
2018-04-07T01:27:01.957Z,52.30
2018-04-07T01:29:29.468Z,52.00
2018-04-07T01:32:00.966Z,51.80
2018-04-07T01:34:28.531Z,51.80
2018-04-07T01:36:59.949Z,51.90
2018-04-07T01:39:29.198Z,51.90
2018-04-07T01:41:57.486Z,51.80
2018-04-07T01:44:25.890Z,52.00
2018-04-07T01:46:53.394Z,52.00
2018-04-07T01:49:20.917Z,51.80
2018-04-07T01:51:48.473Z,52.00
2018-04-07T01:54:16.000Z,51.70
2018-04-07T01:56:44.276Z,51.60
2018-04-07T01:59:13.277Z,51.20
2018-04-07T02:01:41.544Z,51.50
2018-04-07T02:04:09.841Z,51.70
2018-04-07T02:06:37.346Z,51.70
2018-04-07T02:09:05.568Z,51.50
2018-04-07T02:11:33.101Z,51.40
2018-04-07T02:14:01.334Z,51.60
2018-04-07T02:16:28.858Z,51.20
2018-04-07T02:18:57.401Z,51.80
2018-04-07T02:21:24.928Z,51.80
2018-04-07T02:23:52.454Z,51.20
2018-04-07T02:26:20.742Z,51.20
2018-04-07T02:28:49.050Z,50.90
2018-04-07T02:31:16.598Z,50.80
2018-04-07T02:33:44.365Z,50.80
2018-04-07T02:36:11.884Z,50.70
2018-04-07T02:38:39.405Z,50.30
2018-04-07T02:41:07.533Z,50.50
2018-04-07T02:43:35.842Z,50.30
2018-04-07T02:46:03.365Z,50.30
2018-04-07T02:48:31.663Z,50.70
2018-04-07T02:50:59.454Z,50.60
2018-04-07T02:53:27.943Z,50.50
2018-04-07T02:55:56.352Z,50.30
2018-04-07T02:58:23.863Z,50.60
2018-04-07T03:00:52.014Z,51.30
2018-04-07T03:03:20.655Z,51.20
2018-04-07T03:05:48.591Z,51.30
2018-04-07T03:08:16.095Z,51.60
2018-04-07T03:10:43.625Z,51.50
2018-04-07T03:13:11.675Z,51.20
2018-04-07T03:15:39.245Z,51.50
2018-04-07T03:18:06.763Z,51.30
2018-04-07T03:20:35.041Z,51.10
2018-04-07T03:23:03.336Z,51.00
2018-04-07T03:25:30.837Z,51.00
2018-04-07T03:27:58.485Z,51.20
2018-04-07T03:30:26.015Z,50.80
2018-04-07T03:32:53.579Z,50.40
2018-04-07T03:35:21.165Z,50.40
2018-04-07T03:37:48.753Z,50.40
2018-04-07T03:40:16.260Z,50.20
2018-04-07T03:42:43.793Z,50.70
2018-04-07T03:45:12.085Z,50.70
2018-04-07T03:47:40.348Z,50.80
2018-04-07T03:50:08.652Z,50.80
2018-04-07T03:52:36.210Z,50.80
2018-04-07T03:55:04.413Z,51.20
2018-04-07T03:57:31.926Z,51.30
2018-04-07T04:00:00.199Z,51.50
2018-04-07T04:02:28.513Z,51.40
2018-04-07T04:04:56.047Z,51.40
2018-04-07T04:07:24.323Z,51.30
2018-04-07T04:09:51.849Z,51.30
2018-04-07T04:12:19.371Z,51.40
2018-04-07T04:14:46.885Z,51.40
2018-04-07T04:17:15.356Z,51.60
2018-04-07T04:19:43.550Z,51.60
2018-04-07T04:22:11.845Z,50.50
2018-04-07T04:24:39.361Z,50.40
2018-04-07T04:27:06.873Z,50.30
2018-04-07T04:29:34.373Z,50.20
2018-04-07T04:32:02.201Z,50.70
2018-04-07T04:34:29.708Z,50.80
2018-04-07T04:36:57.225Z,50.60
2018-04-07T04:39:24.989Z,50.10
2018-04-07T04:41:52.507Z,49.70
2018-04-07T04:44:20.796Z,50.10
2018-04-07T04:46:49.064Z,50.20
2018-04-07T04:49:17.361Z,49.60
2018-04-07T04:51:44.877Z,49.60
2018-04-07T04:54:12.985Z,50.30
2018-04-07T04:56:40.496Z,50.00
2018-04-07T05:12:08.830Z,53.60
2018-04-07T05:14:36.343Z,53.50
2018-04-07T05:17:03.874Z,52.90
2018-04-07T05:19:31.403Z,52.40
2018-04-07T05:21:58.950Z,52.40
2018-04-07T05:24:26.467Z,52.50
2018-04-07T05:26:54.429Z,52.40
2018-04-07T05:29:26.692Z,52.00
2018-04-07T05:31:54.207Z,51.70
2018-04-07T05:34:22.238Z,51.60
2018-04-07T05:36:49.783Z,52.40
2018-04-07T05:39:21.465Z,52.00
2018-04-07T05:41:49.702Z,52.40
2018-04-07T05:44:21.807Z,52.00
2018-04-07T05:46:50.754Z,52.10
2018-04-07T05:49:18.972Z,51.40
2018-04-07T05:51:46.496Z,51.50
2018-04-07T05:54:14.029Z,51.10
2018-04-07T05:56:42.066Z,51.20
2018-04-07T05:59:09.812Z,51.00
2018-04-07T06:01:37.799Z,50.90
2018-04-07T06:04:09.024Z,50.60
2018-04-07T06:06:36.553Z,50.70
2018-04-07T06:09:10.702Z,49.30
2018-04-07T06:11:45.940Z,50.00
2018-04-07T06:14:13.456Z,48.80
2018-04-07T06:16:40.987Z,49.00
2018-04-07T06:19:13.527Z,47.80
2018-04-07T06:21:41.759Z,47.80
2018-04-07T06:24:10.045Z,47.70
2018-04-07T06:26:37.612Z,47.70
2018-04-07T06:29:05.141Z,47.20
2018-04-07T06:31:37.909Z,46.80
2018-04-07T06:43:50.499Z,46.80
2018-04-07T06:46:18.798Z,47.00
2018-04-07T06:48:46.313Z,46.90
2018-04-07T06:51:13.843Z,45.90
2018-04-07T06:53:41.906Z,44.40
2018-04-07T06:56:09.438Z,44.10
2018-04-07T06:58:36.969Z,44.20
2018-04-07T07:01:05.851Z,43.20
2018-04-07T07:03:33.381Z,41.80
2018-04-07T07:06:00.916Z,41.00
2018-04-07T07:08:28.718Z,40.70
2018-04-07T07:10:56.263Z,40.10
2018-04-07T07:13:23.821Z,39.80
2018-04-07T07:15:51.336Z,39.30
2018-04-07T07:18:18.924Z,39.30
2018-04-07T07:20:47.206Z,38.70
2018-04-07T07:23:14.752Z,38.60
2018-04-07T07:25:43.081Z,38.60
2018-04-07T07:28:10.624Z,38.60
2018-04-07T07:30:38.807Z,37.10
2018-04-07T07:33:06.338Z,36.40
2018-04-07T07:35:33.884Z,36.20
2018-04-07T07:38:02.341Z,36.20
2018-04-07T07:40:29.890Z,36.10
2018-04-07T07:42:57.397Z,34.20
2018-04-07T07:45:24.918Z,32.40
2018-04-07T07:47:52.446Z,32.10
2018-04-07T07:50:19.994Z,31.00
2018-04-07T07:52:47.572Z,30.60
2018-04-07T07:55:15.112Z,31.10
2018-04-07T07:57:43.398Z,30.00
2018-04-07T08:00:10.921Z,29.80
2018-04-07T08:02:38.458Z,28.50
2018-04-07T08:05:06.798Z,28.30
2018-04-07T08:07:34.311Z,28.00
2018-04-07T08:10:01.828Z,28.70
2018-04-07T08:12:29.407Z,28.80
2018-04-07T08:14:56.946Z,29.60
2018-04-07T08:17:24.492Z,29.80
2018-04-07T08:19:52.015Z,29.40
2018-04-07T08:22:20.094Z,30.20
2018-04-07T08:24:47.627Z,31.30
2018-04-07T08:27:16.898Z,32.10
2018-04-07T08:29:44.427Z,32.00
2018-04-07T08:32:12.009Z,31.80
2018-04-07T08:34:39.518Z,28.90
2018-04-07T08:37:07.827Z,27.70
2018-04-07T08:39:39.278Z,27.80
2018-04-07T08:42:06.810Z,26.40
2018-04-07T08:44:35.093Z,25.70
2018-04-07T08:47:02.631Z,25.70
2018-04-07T08:49:30.978Z,28.30
2018-04-07T08:51:58.512Z,28.30
2018-04-07T08:54:26.343Z,28.40
2018-04-07T08:56:55.107Z,27.40
2018-04-07T08:59:22.676Z,27.40
2018-04-07T09:01:50.216Z,28.00
2018-04-07T09:04:18.463Z,27.90
2018-04-07T09:06:46.005Z,28.00
2018-04-07T09:09:13.574Z,27.70
2018-04-07T09:11:41.099Z,27.50
2018-04-07T09:14:09.419Z,25.70
2018-04-07T09:16:36.954Z,25.70
2018-04-07T09:19:04.554Z,25.00
2018-04-07T09:21:32.078Z,25.80
2018-04-07T09:24:00.006Z,25.70
2018-04-07T09:26:27.568Z,26.80
2018-04-07T09:28:55.818Z,27.50
2018-04-07T09:31:25.110Z,28.10
2018-04-07T09:33:52.649Z,28.00
2018-04-07T09:36:20.199Z,27.80
2018-04-07T09:38:48.500Z,27.50
2018-04-07T09:41:16.038Z,28.20
2018-04-07T09:43:43.631Z,28.00
2018-04-07T09:46:11.578Z,27.80
2018-04-07T09:48:39.956Z,23.90
2018-04-07T09:51:07.548Z,25.00
2018-04-07T09:53:36.227Z,25.80
2018-04-07T09:56:03.758Z,25.40
2018-04-07T09:58:31.309Z,26.10
2018-04-07T10:01:00.508Z,25.00
2018-04-07T10:03:28.814Z,26.50
2018-04-07T10:05:56.631Z,26.50
2018-04-07T10:08:24.155Z,26.40
2018-04-07T10:10:51.681Z,25.60
2018-04-07T10:13:19.213Z,25.70
2018-04-07T10:15:47.949Z,24.90
2018-04-07T10:18:15.473Z,24.80
2018-04-07T10:20:44.491Z,25.70
2018-04-07T10:23:12.027Z,25.70
2018-04-07T10:25:40.327Z,25.20
2018-04-07T10:28:13.186Z,25.10
2018-04-07T10:30:41.539Z,24.90
2018-04-07T10:33:09.131Z,24.80
2018-04-07T10:35:37.693Z,26.30
2018-04-07T10:38:05.226Z,26.30
2018-04-07T10:40:32.786Z,28.00
2018-04-07T10:43:01.899Z,25.70
2018-04-07T10:45:29.439Z,26.10
2018-04-07T10:47:56.943Z,25.30
2018-04-07T10:50:25.254Z,26.70
2018-04-07T10:52:52.758Z,26.70
2018-04-07T10:55:20.372Z,26.10
2018-04-07T10:57:47.979Z,25.80
2018-04-07T11:00:59.342Z,24.60
2018-04-07T11:03:26.873Z,25.50
2018-04-07T11:05:54.728Z,25.40
2018-04-07T11:08:30.213Z,24.70
2018-04-07T11:10:57.733Z,25.10
2018-04-07T11:13:25.348Z,25.00
2018-04-07T11:15:52.867Z,25.20
2018-04-07T11:18:20.496Z,25.70
2018-04-07T11:20:49.134Z,24.60
2018-04-07T11:23:17.103Z,24.50
2018-04-07T11:38:49.722Z,25.10
2018-04-07T11:41:18.033Z,24.40
2018-04-07T11:43:45.562Z,24.40
2018-04-07T11:46:14.433Z,25.30
2018-04-07T11:48:42.684Z,25.30
2018-04-07T11:51:10.215Z,25.50
2018-04-07T11:53:37.743Z,24.60
2018-04-07T11:56:06.033Z,23.60
2018-04-07T11:58:34.774Z,24.00
2018-04-07T12:01:02.311Z,24.00
2018-04-07T12:03:29.832Z,24.70
2018-04-07T12:05:58.137Z,24.70
2018-04-07T12:08:25.663Z,24.70
2018-04-07T12:10:53.981Z,23.50
2018-04-07T12:13:22.198Z,23.50
2018-04-07T12:15:50.052Z,22.90
2018-04-07T12:18:18.036Z,23.70
2018-04-07T12:20:45.594Z,23.90
2018-04-07T12:23:13.153Z,24.50
2018-04-07T12:25:45.248Z,24.60
2018-04-07T12:28:14.216Z,23.40
2018-04-07T12:30:42.702Z,23.40
2018-04-07T12:33:10.250Z,22.50
2018-04-07T12:35:37.785Z,23.10
2018-04-07T12:38:05.313Z,23.90
2018-04-07T12:40:32.842Z,20.90
2018-04-07T12:43:01.178Z,21.80
2018-04-07T12:45:28.697Z,21.80
2018-04-07T12:47:57.002Z,21.80
2018-04-07T12:50:24.525Z,21.70
2018-04-07T12:52:52.822Z,22.50
2018-04-07T12:55:20.362Z,22.50
2018-04-07T12:57:48.939Z,24.10
2018-04-07T13:00:16.498Z,24.10
2018-04-07T13:02:44.030Z,23.60
2018-04-07T13:05:11.557Z,23.30
2018-04-07T13:07:39.081Z,23.00
2018-04-07T13:10:07.403Z,22.90
2018-04-07T13:12:34.914Z,22.90
2018-04-07T13:15:03.213Z,22.80
2018-04-07T13:17:30.760Z,22.80
2018-04-07T13:19:59.068Z,22.60
2018-04-07T13:22:26.602Z,22.60
2018-04-07T13:24:55.165Z,23.90
2018-04-07T13:27:22.775Z,23.80
2018-04-07T13:33:02.242Z,22.80
2018-04-07T13:35:30.980Z,24.50
2018-04-07T13:37:58.752Z,24.00
2018-04-07T13:40:26.290Z,24.50
2018-04-07T13:42:53.835Z,24.20
2018-04-07T13:45:21.375Z,24.00
2018-04-07T13:47:49.692Z,22.80
2018-04-07T13:50:17.231Z,22.80
2018-04-07T13:52:44.751Z,22.20
2018-04-07T13:55:12.285Z,21.70
2018-04-07T13:57:39.817Z,23.60
2018-04-07T14:00:07.364Z,22.90
2018-04-07T14:02:35.670Z,21.70
2018-04-07T14:05:03.189Z,21.60
2018-04-07T14:07:35.258Z,21.20
2018-04-07T14:10:03.553Z,20.20
2018-04-07T14:12:31.339Z,20.10
2018-04-07T14:14:58.958Z,20.00
2018-04-07T14:17:27.260Z,19.50
2018-04-07T14:19:54.817Z,19.40
2018-04-07T14:22:23.724Z,19.00
2018-04-07T14:24:51.381Z,21.40
2018-04-07T14:27:18.901Z,21.40
2018-04-07T14:29:46.476Z,21.30
2018-04-07T14:32:14.750Z,20.40
2018-04-07T14:34:44.036Z,20.80
2018-04-07T16:05:35.950Z,31.50
2018-04-07T16:08:03.577Z,31.50
2018-04-07T16:10:31.149Z,31.70
2018-04-07T16:12:59.599Z,34.40
2018-04-07T16:15:27.378Z,34.30
2018-04-07T16:17:56.323Z,34.90
2018-04-07T16:20:24.885Z,34.90
2018-04-07T16:22:53.184Z,35.20
2018-04-07T16:25:20.719Z,35.10
2018-04-07T16:27:49.035Z,36.20
2018-04-07T16:30:17.270Z,36.20
2018-04-07T16:32:45.577Z,36.40
2018-04-07T16:35:13.118Z,36.40
2018-04-07T16:37:40.675Z,36.10
2018-04-07T16:40:08.215Z,36.60
2018-04-07T16:42:36.527Z,37.40
2018-04-07T16:45:04.501Z,37.40
2018-04-07T16:47:32.048Z,37.60
2018-04-07T16:49:59.580Z,37.50
2018-04-07T16:52:28.503Z,38.00
2018-04-07T16:54:56.799Z,38.00
2018-04-07T16:57:24.329Z,38.00
2018-04-07T16:59:51.906Z,38.10
2018-04-07T17:02:19.438Z,38.40
2018-04-07T17:04:47.875Z,38.70
2018-04-07T17:07:19.436Z,38.70
2018-04-07T17:09:46.975Z,38.80
2018-04-07T17:12:14.984Z,39.20
2018-04-07T17:14:46.269Z,39.10
2018-04-07T17:17:13.821Z,38.90
2018-04-07T17:19:41.362Z,38.90
2018-04-07T17:22:10.045Z,38.60
2018-04-07T17:24:37.568Z,38.50
2018-04-07T17:27:05.128Z,38.90
2018-04-07T17:29:32.665Z,39.40
2018-04-07T17:32:00.222Z,39.60
2018-04-07T17:34:27.746Z,39.60
2018-04-07T17:36:56.082Z,39.90
2018-04-07T17:49:08.641Z,39.80
2018-04-07T17:51:36.187Z,42.40
2018-04-07T17:54:03.734Z,42.60
2018-04-07T17:56:32.587Z,42.40
2018-04-07T17:59:04.186Z,42.40
2018-04-07T18:01:32.455Z,42.90
2018-04-07T18:04:00.778Z,44.40
2018-04-07T18:06:28.396Z,44.30
2018-04-07T18:08:56.680Z,43.30
2018-04-07T18:11:25.010Z,43.20
2018-04-07T18:13:55.390Z,43.70
2018-04-07T18:16:22.964Z,43.80
2018-04-07T18:18:50.486Z,43.60
2018-04-07T18:21:19.465Z,44.10
2018-04-07T18:23:47.353Z,44.00
2018-04-07T18:36:04.392Z,46.20
2018-04-07T18:38:31.999Z,46.10
2018-04-07T18:41:00.934Z,45.90
2018-04-07T18:43:28.474Z,45.80
2018-04-07T18:59:01.406Z,45.50
2018-04-07T19:01:28.958Z,47.20
2018-04-07T19:03:56.551Z,46.50
2018-04-07T19:06:24.911Z,46.40
2018-04-07T19:08:53.227Z,46.20
2018-04-07T19:11:20.788Z,46.20
2018-04-07T19:13:48.331Z,46.60
2018-04-07T19:16:16.950Z,45.80
2018-04-07T19:18:44.494Z,45.80
2018-04-07T19:21:12.043Z,45.60
2018-04-07T19:23:39.573Z,45.40
2018-04-07T19:26:11.016Z,45.50
2018-04-07T19:28:38.570Z,44.90
2018-04-07T19:31:06.105Z,45.90
2018-04-07T19:33:33.690Z,45.40
2018-04-07T19:36:01.818Z,45.60
2018-04-07T19:38:29.402Z,45.30
2018-04-07T19:40:56.931Z,45.10
2018-04-07T19:43:24.490Z,46.30
2018-04-07T19:45:52.099Z,45.70
2018-04-07T19:48:20.048Z,45.60
2018-04-07T19:50:49.150Z,45.90
2018-04-07T19:53:16.714Z,45.80
2018-04-07T19:55:44.262Z,45.70
2018-04-07T19:58:11.812Z,45.50
2018-04-07T20:00:39.358Z,46.40
2018-04-07T20:03:06.906Z,46.00
2018-04-07T20:05:34.442Z,46.80
2018-04-07T20:08:01.989Z,46.90
2018-04-07T20:10:29.878Z,46.00
2018-04-07T20:12:58.188Z,45.90
2018-04-07T20:15:26.490Z,45.90
2018-04-07T20:17:54.028Z,46.10
2018-04-07T20:20:21.606Z,47.20
2018-04-07T20:22:55.133Z,47.00
2018-04-07T20:25:28.435Z,47.40
2018-04-07T20:27:56.764Z,48.10
2018-04-07T20:30:24.302Z,48.10
2018-04-07T20:32:51.892Z,49.00
2018-04-07T20:35:26.438Z,49.10
2018-04-07T20:37:54.691Z,49.40
2018-04-07T20:40:26.228Z,49.90
2018-04-07T20:42:53.796Z,49.30
2018-04-07T20:45:21.338Z,48.60
2018-04-07T20:47:48.906Z,48.10
2018-04-07T20:50:16.439Z,48.20
2018-04-07T20:52:49.069Z,47.50
2018-04-07T20:55:16.598Z,46.90
2018-04-07T20:57:44.616Z,46.80
2018-04-07T21:00:12.173Z,46.90
2018-04-07T21:02:41.105Z,46.50
2018-04-07T21:05:09.391Z,46.30
2018-04-07T21:07:37.719Z,46.00
2018-04-07T21:10:05.274Z,45.90
2018-04-07T21:12:32.797Z,45.50
2018-04-07T21:15:00.350Z,45.20
2018-04-07T21:17:28.691Z,44.70
2018-04-07T21:19:56.237Z,44.70
2018-04-07T21:22:23.779Z,44.70
2018-04-07T21:24:51.447Z,43.80
2018-04-07T21:27:18.984Z,44.40
2018-04-07T21:29:46.540Z,43.60
2018-04-07T21:32:14.093Z,45.70
2018-04-07T21:34:41.672Z,47.00
2018-04-07T21:37:09.216Z,47.40
2018-04-07T21:39:36.809Z,47.20
2018-04-07T21:42:04.488Z,47.30
2018-04-07T21:44:32.053Z,47.90
2018-04-07T21:46:59.634Z,48.00
2018-04-07T21:49:27.938Z,49.10
2018-04-07T21:51:56.451Z,49.70
2018-04-07T21:54:24.012Z,48.70
2018-04-07T21:56:51.587Z,48.30
2018-04-07T21:59:19.128Z,48.90
2018-04-07T22:01:46.651Z,50.00
2018-04-07T22:04:14.951Z,49.30
2018-04-07T22:06:42.523Z,49.60
2018-04-07T22:09:10.927Z,50.30
2018-04-07T22:11:38.498Z,49.60
2018-04-07T22:14:06.143Z,49.40
2018-04-07T22:16:34.660Z,49.40
2018-04-07T22:19:02.981Z,49.80
2018-04-07T22:21:30.509Z,49.80
2018-04-07T22:23:58.842Z,50.30
2018-04-07T22:36:11.397Z,50.30
2018-04-07T22:38:38.922Z,52.10
2018-04-07T22:41:07.245Z,51.50
2018-04-07T22:43:36.058Z,52.00
2018-04-07T22:46:04.423Z,51.40
2018-04-07T22:48:31.982Z,51.70
2018-04-07T22:51:00.130Z,51.40
2018-04-07T22:53:27.690Z,50.80
2018-04-07T23:05:45.271Z,51.00
2018-04-07T23:08:12.804Z,52.10
2018-04-07T23:10:41.106Z,51.60
2018-04-07T23:13:08.652Z,51.50
2018-04-07T23:15:36.953Z,50.80
2018-04-07T23:18:04.485Z,50.80
2018-04-07T23:20:32.847Z,50.90
2018-04-07T23:23:00.617Z,50.80
2018-04-07T23:25:28.203Z,50.50
2018-04-07T23:27:55.740Z,50.90
2018-04-07T23:30:24.869Z,50.30
2018-04-07T23:32:52.399Z,50.30
2018-04-07T23:35:20.703Z,50.30
2018-04-07T23:37:48.494Z,50.30
2018-04-07T23:40:16.013Z,51.00
2018-04-07T23:42:44.305Z,50.50
2018-04-07T23:45:12.397Z,50.50
2018-04-07T23:47:40.370Z,50.40
2018-04-07T23:50:08.429Z,49.80
2018-04-07T23:52:36.754Z,50.10
2018-04-07T23:55:04.505Z,49.90
2018-04-07T23:57:32.054Z,49.90
2018-04-07T23:59:59.604Z,49.10
